x

Port Orford - 15 Nm West Of Port Orford, Or (46015) Wave Buoy

5:50pm - Thu 30th Jul 2015 All times are PDT. -7 hours from GMT.

  • Sig Wave height 5.6ft
  • Swell Direction
  • Peak Period 9s
  • Average Period 7s
  • Wind
    4mph
  • Sea Temp 60°f
  • Air Temp 61°f
  • Sea Pressure 1017.3mb
  • Port Orford - 15 Nm West Of Port Orford, Or
  • Port Orford - 15 Nm West Of Port Orford, Or

More Historic Weather Station data

Upgrade to MSW Pro to gain access to the past 30 days of data for over 8000 Wavebouys and Weather Stations around the globe.

Join Pro

Comparision Forecast

View Surf forecast
   
Thu 07/30 5:50pm 5.5ft 9s 7s 4
mph
1017.3mb 60f 61f
4:50pm 5.5ft 9s 6s 2
mph
1017.8mb 60f 60f
3:50pm 6ft 8s 7s 4
mph
1017.8mb 59f 59f
2:50pm 6ft 8s 6s 2 4 mph 1018mb 58f 57f
1:50pm 6ft 8s 6s 4
mph
1018mb 56f 57f
12:50pm 6.5ft 8s 6s 4
mph
1017.8mb 55f 56f
11:50am 6ft 7s 7s 7 11 mph 1017.5mb 54f 56f
10:50am 7ft 8s 7s 9 11 mph 1017.1mb 54f 56f
9:50am 6ft 8s  -  11 13 mph 1016.7mb 54f 56f
8:50am 6.5ft 8s 7s 11
mph
1016.6mb 54f 55f
7:50am 6.5ft 7s 6s 11
mph
1016.2mb 53f 55f
6:50am 6.5ft 7s 6s 13 16 mph 1015.5mb 54f 55f
5:50am 7ft 8s 6s 16 18 mph 1014.7mb 54f 56f
4:50am 7ft 8s 6s 16 20 mph 1014.6mb 54f 56f
3:50am 7ft 8s 6s 18 20 mph 1014.3mb 54f 56f
2:50am 7ft 9s 6s 11 16 mph 1014.8mb 54f 56f
1:50am 7.5ft 7s 6s 13 18 mph 1014.6mb 54f 57f
12:50am 7ft 7s 6s 20 22 mph 1014.1mb 54f 57f
Wed 07/29 11:50pm 7ft 8s 6s 22 25 mph 1013.8mb 54f 57f
10:50pm 6ft 8s 6s 18 20 mph 1014.6mb 54f 56f
9:50pm 6.5ft 7s 6s 16 18 mph 1014.8mb 54f 56f
8:50pm 7ft 7s 6s 18 20 mph 1014.3mb 54f 57f
7:50pm 7ft 7s 6s 18 20 mph 1014.3mb 54f 57f
6:50pm 7ft 8s 6s 20 22 mph 1014.1mb 54f 58f
5:50pm 7.5ft 8s 6s 20 25 mph 1014.1mb 54f 58f
4:50pm 7ft 8s 6s 22 27 mph 1014.3mb 54f 58f
3:50pm 7ft 8s 5s 25 29 mph 1014.4mb 54f 58f
2:50pm 7.5ft 7s 6s 22 29 mph 1014.9mb 54f 58f
1:50pm 7ft 7s 5s 27 29 mph 1014.6mb 53f 58f
12:50pm 7ft 7s 5s 27 31 mph 1014.7mb 53f 58f
11:50am 7.5ft 7s 6s 25 29 mph 1015mb 53f 58f
10:50am 7.5ft 8s 6s 27 31 mph 1014.9mb 53f 57f
9:50am 7.5ft 7s 6s 25 29 mph 1014.7mb 53f 57f
8:50am 8ft 7s 6s 27 31 mph 1014.7mb 53f 57f
7:50am 7.5ft 8s 6s 25 29 mph 1015.1mb 53f 56f
6:50am 7ft 7s 5s 25 29 mph 1015.2mb 53f 56f
5:50am 8ft 8s 6s 25 27 mph 1015.2mb 53f 56f
4:50am 7ft 7s 6s 25 29 mph 1015.2mb 53f 56f
3:50am 8ft 7s 6s 27 29 mph 1015.1mb 53f 57f
2:50am 8ft 7s 6s 27 31 mph 1015.2mb 52f 57f
1:50am 7.5ft 7s 5s 27 31 mph 1015.6mb 53f 57f
12:50am 8ft 7s 5s 27 31 mph 1016mb 53f 57f
Tue 07/28 11:50pm 8ft 7s 6s 25 29 mph 1016.4mb 53f 58f
10:50pm 8ft 7s 6s 27 31 mph 1016.4mb 53f 58f
9:50pm 7.5ft 7s 6s 25 29 mph 1016.6mb 53f 58f
8:50pm 7.5ft 7s 6s 27 31 mph 1016mb 53f 58f
7:50pm 8ft 7s 6s 25 29 mph 1016.3mb 53f 58f
6:50pm 7ft 7s 5s 25 31 mph 1016.6mb 53f 58f
5:50pm 7ft 7s 5s 25 29 mph 1017.1mb 52f 58f
4:50pm 7ft 7s 5s 22 27 mph 1017.5mb 52f 58f
3:50pm 7ft 6s 5s 25 29 mph 1017.8mb 52f 58f
2:50pm 7ft 7s 5s 27 31 mph 1018mb 53f 58f
1:50pm 6.5ft 7s 5s 27 31 mph 1018.4mb 53f 58f
12:50pm 6.5ft 7s 5s 27 31 mph 1018.9mb 52f 58f
11:50am 6.5ft 6s 5s 27 29 mph 1019.1mb 52f 57f
10:50am 7ft 7s 5s 27 36 mph 1019.4mb 52f 57f
9:50am 7ft 7s 5s 25 29 mph 1020mb 51f 57f
8:50am 6ft 7s 5s 25 27 mph 1020.1mb 51f 56f
7:50am 6.5ft 7s 5s 25 29 mph 1020mb 51f 56f
6:50am 7ft 7s 5s 25 29 mph 1019.9mb 51f 56f
5:50am 7ft 7s 5s 25 29 mph 1019.9mb 51f 56f
4:50am 7ft 7s 5s 27 31 mph 1019.9mb 52f 57f
3:50am 7ft 7s 5s 27 31 mph 1020.4mb 52f 57f
2:50am 7ft 6s 5s 27 31 mph 1020.5mb 53f 57f
1:50am 7ft 7s 5s 25 29 mph 1020.9mb 53f 58f
12:50am 6.5ft 7s 5s 22 27 mph 1021.3mb 53f 58f
Mon 07/27 11:50pm 6.5ft 6s 5s 22 27 mph 1021.4mb 53f 58f
10:50pm 7ft 8s 6s 20 22 mph 1021.8mb 53f 58f
9:50pm 6.5ft 6s 5s 20 22 mph 1021.8mb 53f 58f
8:50pm 6ft 6s 5s 20 25 mph 1021.7mb 53f 58f
7:50pm 6ft 6s 5s 18 22 mph 1021.8mb 54f 59f
6:50pm 6ft 10s 5s 22 25 mph 1021.6mb 54f 60f
5:50pm 6ft 9s 5s 22 25 mph 1021.6mb 54f 60f
4:50pm 6ft 5s 5s 20 25 mph 1021.8mb 55f 60f
3:50pm 5ft 9s 5s 22 25 mph 1022mb 55f 60f
2:50pm 5ft 9s 5s 22 25 mph 1022.1mb 54f 60f
1:50pm 5ft 10s 5s 22 27 mph 1022.2mb 55f 60f
12:50pm 5.5ft 10s 6s 20 25 mph 1022.6mb 55f 59f
11:50am 5ft 10s 6s 20 22 mph 1022.7mb 55f 59f
10:50am 5ft 8s 6s 16 20 mph 1022.6mb 54f 58f
9:50am 5ft 9s 6s 16 18 mph 1022.7mb 54f 58f
8:50am 5ft 9s 6s 13 16 mph 1022.3mb 54f 58f
7:50am 5ft 10s 6s 13 16 mph 1022.1mb 53f 58f
6:50am 5ft 9s 6s 11
mph
1021.9mb 53f 57f
5:50am 4.5ft 9s 6s 9 11 mph 1021.6mb 54f 57f
4:50am 5ft 9s 6s 13 16 mph 1021.1mb 54f 58f
3:50am 5ft 10s 6s 13 16 mph 1020.9mb 54f 58f
2:50am 5ft 10s 6s 11 13 mph 1020.8mb 54f 58f